createdAt,value
2022-12-11T00:00:05.567Z,96.99
2022-12-11T00:02:32.052Z,97.16
2022-12-11T00:05:01.728Z,95.40
2022-12-11T00:07:28.196Z,95.38
2022-12-11T00:09:54.634Z,95.94
2022-12-11T00:12:21.182Z,96.09
2022-12-11T00:14:47.713Z,95.58
2022-12-11T00:17:14.250Z,95.31
2022-12-11T00:19:40.666Z,95.46
2022-12-11T00:22:08.289Z,96.15
2022-12-11T00:24:34.716Z,95.51
2022-12-11T00:27:01.412Z,93.38
2022-12-11T00:29:28.178Z,93.65
2022-12-11T00:31:54.679Z,94.32
2022-12-11T00:34:21.386Z,94.42
2022-12-11T00:36:48.103Z,94.82
2022-12-11T00:39:14.597Z,95.02
2022-12-11T00:41:42.401Z,93.98
2022-12-11T00:44:08.974Z,93.19
2022-12-11T00:46:35.503Z,94.44
2022-12-11T00:49:01.902Z,95.04
2022-12-11T00:51:28.365Z,95.07
2022-12-11T00:53:54.793Z,94.70
2022-12-11T00:56:22.127Z,95.07
2022-12-11T00:58:51.591Z,95.31
2022-12-11T01:01:22.623Z,94.72
2022-12-11T01:03:49.408Z,95.63
2022-12-11T01:06:18.271Z,96.17
2022-12-11T01:08:46.011Z,95.41
2022-12-11T01:11:14.957Z,95.50
2022-12-11T01:13:42.341Z,96.40
2022-12-11T01:16:14.267Z,95.85
2022-12-11T01:18:41.075Z,96.56
2022-12-11T01:21:13.586Z,96.30
2022-12-11T01:23:40.402Z,96.14
2022-12-11T01:26:15.353Z,95.80
2022-12-11T01:28:42.366Z,96.07
2022-12-11T01:31:10.406Z,95.76
2022-12-11T01:33:39.530Z,95.91
2022-12-11T01:36:09.667Z,96.82
2022-12-11T01:38:36.320Z,96.23
2022-12-11T01:41:03.324Z,97.18
2022-12-11T01:43:29.747Z,97.90
2022-12-11T01:45:56.263Z,98.46
2022-12-11T01:48:25.787Z,97.23
2022-12-11T01:50:54.721Z,95.98
2022-12-11T01:53:25.210Z,96.38
2022-12-11T01:55:53.863Z,96.74
2022-12-11T01:58:22.017Z,97.46
2022-12-11T02:00:48.564Z,97.99
2022-12-11T02:03:15.201Z,98.17
2022-12-11T02:05:41.654Z,96.84
2022-12-11T02:08:08.593Z,96.52
2022-12-11T02:10:57.484Z,96.21
2022-12-11T02:13:35.744Z,95.55
2022-12-11T02:16:33.236Z,96.08
2022-12-11T02:19:03.585Z,96.48
2022-12-11T02:21:37.163Z,96.95
2022-12-11T02:24:42.677Z,96.70
2022-12-11T02:27:18.367Z,96.80
2022-12-11T02:30:23.702Z,97.40
2022-12-11T02:32:54.254Z,96.72
2022-12-11T02:35:35.595Z,96.42
2022-12-11T02:38:05.700Z,96.75
2022-12-11T02:40:35.149Z,95.91
2022-12-11T02:43:04.797Z,95.57
2022-12-11T02:45:32.195Z,96.64
2022-12-11T02:48:00.089Z,96.29
2022-12-11T02:50:27.391Z,97.19
2022-12-11T02:52:56.192Z,96.46
2022-12-11T02:55:25.145Z,96.34
2022-12-11T02:58:00.753Z,95.78
2022-12-11T03:00:27.266Z,95.43
2022-12-11T03:02:53.825Z,95.06
2022-12-11T03:05:20.374Z,95.62
2022-12-11T03:07:49.289Z,96.65
2022-12-11T03:10:19.285Z,96.17
2022-12-11T03:12:53.412Z,96.20
2022-12-11T03:15:22.313Z,96.63
2022-12-11T03:18:13.924Z,96.98
2022-12-11T03:20:45.941Z,97.34
2022-12-11T03:23:21.166Z,97.00
2022-12-11T03:25:55.579Z,97.44
2022-12-11T03:28:51.451Z,96.64
2022-12-11T03:31:26.494Z,96.82
2022-12-11T03:33:56.500Z,96.81
2022-12-11T03:36:26.221Z,96.51
2022-12-11T03:39:14.140Z,95.84
2022-12-11T03:41:41.150Z,95.07
2022-12-11T03:44:10.526Z,94.85
2022-12-11T03:46:39.167Z,94.80
2022-12-11T03:49:22.162Z,95.41
2022-12-11T03:51:50.496Z,95.11
2022-12-11T03:54:17.287Z,95.55
2022-12-11T03:56:45.788Z,96.01
2022-12-11T03:59:12.787Z,95.85
2022-12-11T04:01:42.199Z,95.96
2022-12-11T04:04:08.787Z,97.39
2022-12-11T04:06:35.253Z,97.29
2022-12-11T04:09:03.477Z,97.11
2022-12-11T04:11:35.570Z,96.08
2022-12-11T04:14:29.266Z,97.02
2022-12-11T04:16:56.503Z,96.43
2022-12-11T04:19:42.510Z,96.41
2022-12-11T04:22:15.512Z,97.08
2022-12-11T04:24:43.086Z,95.98
2022-12-11T04:27:09.828Z,96.68
2022-12-11T04:29:36.286Z,97.53
2022-12-11T04:32:02.706Z,97.96
2022-12-11T04:34:29.302Z,99.14
2022-12-11T04:36:55.729Z,98.28
2022-12-11T04:39:22.184Z,97.47
2022-12-11T04:41:48.646Z,97.94
2022-12-11T04:44:15.088Z,97.26
2022-12-11T04:46:41.606Z,97.38
2022-12-11T04:49:08.396Z,97.90
2022-12-11T04:51:34.813Z,97.98
2022-12-11T04:54:01.258Z,97.54
2022-12-11T04:56:29.997Z,96.77
2022-12-11T04:58:56.421Z,95.44
2022-12-11T05:01:23.101Z,95.77
2022-12-11T05:03:50.113Z,95.57
2022-12-11T05:06:16.589Z,94.73
2022-12-11T05:08:43.339Z,96.68
2022-12-11T05:11:12.282Z,96.99
2022-12-11T05:13:38.955Z,97.39
2022-12-11T05:16:07.072Z,97.46
2022-12-11T05:18:33.704Z,96.80
2022-12-11T05:21:02.460Z,97.52
2022-12-11T05:23:29.091Z,97.58
2022-12-11T05:25:57.601Z,97.38
2022-12-11T05:28:25.124Z,97.75
2022-12-11T05:31:04.521Z,97.37
2022-12-11T05:33:31.627Z,97.62
2022-12-11T05:35:58.249Z,97.38
2022-12-11T05:38:24.730Z,96.57
2022-12-11T05:40:58.887Z,96.71
2022-12-11T05:43:26.189Z,96.49
2022-12-11T05:45:52.927Z,97.48
2022-12-11T05:48:19.609Z,98.11
2022-12-11T05:50:56.472Z,98.31
2022-12-11T05:53:22.905Z,98.77
2022-12-11T05:55:49.316Z,99.66
2022-12-11T05:58:17.101Z,98.81
2022-12-11T06:00:43.657Z,99.68
2022-12-11T06:03:10.642Z,99.48
2022-12-11T06:05:41.105Z,99.79
2022-12-11T06:08:08.844Z,99.69
2022-12-11T06:10:42.864Z,99.06
2022-12-11T06:13:10.863Z,98.77
2022-12-11T06:15:37.273Z,99.07
2022-12-11T06:18:03.697Z,99.24
2022-12-11T06:20:33.964Z,99.77
2022-12-11T06:23:01.537Z,99.75
2022-12-11T06:25:28.856Z,100.00
2022-12-11T06:27:55.332Z,100.00
2022-12-11T06:30:21.823Z,100.00
2022-12-11T06:33:05.027Z,100.00
2022-12-11T06:35:31.500Z,100.00
2022-12-11T06:37:57.995Z,100.00
2022-12-11T06:40:24.509Z,100.00
2022-12-11T06:42:50.925Z,100.00
2022-12-11T06:45:17.358Z,99.69
2022-12-11T06:47:44.151Z,99.46
2022-12-11T06:50:10.699Z,99.02
2022-12-11T06:52:37.126Z,99.05
2022-12-11T06:55:03.786Z,98.86
2022-12-11T06:57:30.201Z,98.97
2022-12-11T06:59:56.592Z,98.94
2022-12-11T07:02:23.317Z,98.56
2022-12-11T07:04:55.230Z,98.54
2022-12-11T07:07:21.933Z,98.71
2022-12-11T07:09:48.416Z,98.12
2022-12-11T07:12:14.861Z,98.36
2022-12-11T07:14:41.339Z,98.67
2022-12-11T07:17:07.883Z,98.48
2022-12-11T07:19:34.394Z,98.80
2022-12-11T07:22:00.819Z,97.51
2022-12-11T07:24:27.251Z,96.72
2022-12-11T07:26:53.811Z,96.44
2022-12-11T07:29:20.218Z,96.32
2022-12-11T07:31:46.723Z,95.62
2022-12-11T07:34:14.375Z,94.80
2022-12-11T07:36:41.264Z,94.60
2022-12-11T07:39:09.092Z,95.52
2022-12-11T07:41:35.726Z,95.26
2022-12-11T07:44:02.643Z,94.94
2022-12-11T07:46:30.657Z,94.96
2022-12-11T07:48:57.133Z,95.63
2022-12-11T07:51:27.685Z,95.88
2022-12-11T07:53:59.478Z,97.30
2022-12-11T07:56:29.562Z,97.01
2022-12-11T07:58:56.681Z,96.54
2022-12-11T08:01:26.176Z,96.21
2022-12-11T08:03:54.874Z,96.24
2022-12-11T08:06:29.440Z,96.52
2022-12-11T08:09:21.120Z,96.62
2022-12-11T08:11:53.569Z,97.35
2022-12-11T08:14:21.175Z,97.69
2022-12-11T08:16:48.296Z,98.49
2022-12-11T08:19:15.333Z,98.88
2022-12-11T08:21:44.114Z,98.23
2022-12-11T08:24:10.845Z,96.89
2022-12-11T08:26:38.548Z,96.61
2022-12-11T08:29:05.001Z,98.41
2022-12-11T08:31:31.471Z,97.71
2022-12-11T08:33:59.182Z,98.03
2022-12-11T08:36:26.209Z,97.48
2022-12-11T08:38:57.418Z,96.90
2022-12-11T08:41:29.025Z,96.42
2022-12-11T08:43:57.493Z,96.38
2022-12-11T08:46:30.597Z,95.99
2022-12-11T08:48:57.884Z,97.65
2022-12-11T08:51:26.243Z,97.96
2022-12-11T08:53:59.373Z,97.16
2022-12-11T08:56:27.334Z,97.52
2022-12-11T08:58:56.215Z,97.38
2022-12-11T09:01:26.448Z,97.64
2022-12-11T09:03:54.498Z,97.22
2022-12-11T09:06:25.369Z,96.28
2022-12-11T09:08:53.537Z,97.16
2022-12-11T09:11:29.041Z,96.98
2022-12-11T09:13:58.165Z,96.99
2022-12-11T09:16:27.253Z,99.34
2022-12-11T09:18:55.659Z,98.29
2022-12-11T09:21:24.987Z,98.18
2022-12-11T09:23:56.748Z,96.72
2022-12-11T09:26:24.665Z,96.28
2022-12-11T09:28:55.095Z,96.89
2022-12-11T09:31:31.624Z,97.42
2022-12-11T09:36:44.354Z,97.14
2022-12-11T09:39:11.583Z,98.13
2022-12-11T09:42:15.805Z,97.98
2022-12-11T09:44:46.520Z,98.21
2022-12-11T09:47:36.556Z,97.20
2022-12-11T09:50:12.006Z,96.35
2022-12-11T09:53:17.016Z,96.19
2022-12-11T09:55:48.915Z,95.36
2022-12-11T09:58:30.387Z,95.28
2022-12-11T10:01:37.319Z,95.58
2022-12-11T10:04:26.624Z,96.70
2022-12-11T10:07:14.300Z,96.85
2022-12-11T10:09:46.938Z,96.54
2022-12-11T10:12:53.717Z,96.77
2022-12-11T10:15:28.797Z,97.07
2022-12-11T10:18:02.966Z,96.97
2022-12-11T10:20:39.217Z,97.20
2022-12-11T10:23:13.804Z,100.00
2022-12-11T10:25:44.537Z,100.00
2022-12-11T10:28:16.325Z,100.00
2022-12-11T10:31:05.999Z,100.00
2022-12-11T10:34:08.292Z,100.00
2022-12-11T10:36:38.051Z,100.00
2022-12-11T10:39:23.394Z,100.00
2022-12-11T10:41:52.063Z,100.00
2022-12-11T10:44:25.344Z,100.00
2022-12-11T10:47:18.114Z,100.00
2022-12-11T10:49:58.608Z,100.00
2022-12-11T10:52:27.026Z,100.00
2022-12-11T10:55:03.223Z,100.00
2022-12-11T10:57:32.196Z,100.00
2022-12-11T11:00:03.758Z,100.00
2022-12-11T11:02:38.489Z,100.00
2022-12-11T11:05:28.600Z,100.00
2022-12-11T11:08:11.883Z,100.00
2022-12-11T11:10:38.370Z,100.00
2022-12-11T11:13:05.280Z,100.00
2022-12-11T11:15:31.754Z,100.00
2022-12-11T11:18:09.855Z,100.00
2022-12-11T11:20:36.346Z,100.00
2022-12-11T11:23:05.156Z,99.49
2022-12-11T11:25:32.967Z,99.02
2022-12-11T11:28:05.316Z,98.27
2022-12-11T11:30:34.928Z,97.89
2022-12-11T11:33:12.914Z,97.87
2022-12-11T11:36:04.511Z,97.81
2022-12-11T11:38:50.814Z,97.23
2022-12-11T11:41:20.175Z,96.94
2022-12-11T11:43:51.309Z,95.84
2022-12-11T11:46:33.351Z,96.05
2022-12-11T11:49:30.619Z,95.73
2022-12-11T11:52:08.053Z,95.97
2022-12-11T11:54:37.923Z,95.39
2022-12-11T11:57:44.225Z,94.85
2022-12-11T12:00:28.825Z,94.86
2022-12-11T12:03:01.812Z,95.43
2022-12-11T12:05:46.925Z,95.26
2022-12-11T12:08:30.187Z,95.65
2022-12-11T12:11:03.933Z,95.35
2022-12-11T12:13:49.423Z,96.04
2022-12-11T12:16:51.662Z,95.30
2022-12-11T12:19:30.627Z,94.78
2022-12-11T12:21:57.335Z,94.18
2022-12-11T12:24:39.237Z,92.99
2022-12-11T12:27:52.219Z,92.47
2022-12-11T12:30:22.926Z,91.89
2022-12-11T12:33:19.807Z,91.81
2022-12-11T12:36:07.236Z,91.61
2022-12-11T12:38:46.930Z,90.68
2022-12-11T12:41:32.390Z,91.58
2022-12-11T12:44:19.368Z,92.51
2022-12-11T12:47:09.768Z,92.24
2022-12-11T12:49:49.808Z,91.88
2022-12-11T12:52:27.126Z,92.31
2022-12-11T12:55:14.805Z,93.13
2022-12-11T12:58:07.790Z,92.87
2022-12-11T13:00:42.171Z,92.81
2022-12-11T13:03:27.232Z,93.07
2022-12-11T13:06:01.230Z,93.64
2022-12-11T13:08:29.650Z,93.41
2022-12-11T13:11:01.879Z,92.40
2022-12-11T13:13:37.073Z,91.38
2022-12-11T13:16:07.768Z,91.75
2022-12-11T13:18:39.155Z,92.48
2022-12-11T13:24:27.904Z,92.14
2022-12-11T13:26:54.653Z,92.78
2022-12-11T13:29:36.525Z,92.00
2022-12-11T13:32:22.741Z,91.44
2022-12-11T13:34:57.643Z,91.47
2022-12-11T13:37:44.646Z,90.30
2022-12-11T13:40:37.035Z,91.37
2022-12-11T13:43:07.063Z,91.87
2022-12-11T13:45:46.531Z,92.27
2022-12-11T13:49:00.957Z,91.88
2022-12-11T13:51:37.992Z,91.18
2022-12-11T13:54:17.068Z,90.97
2022-12-11T13:57:02.069Z,91.20
2022-12-11T13:59:42.482Z,91.72
2022-12-11T14:02:20.949Z,91.73
2022-12-11T14:04:50.075Z,90.86
2022-12-11T14:07:22.528Z,90.97
2022-12-11T14:09:49.080Z,91.87
2022-12-11T14:12:18.481Z,91.81
2022-12-11T14:14:53.850Z,91.84
2022-12-11T14:17:28.739Z,91.42
2022-12-11T14:19:58.235Z,91.25
2022-12-11T14:22:27.193Z,91.33
2022-12-11T14:24:58.834Z,91.49
2022-12-11T14:27:26.324Z,91.51
2022-12-11T14:29:52.940Z,91.67
2022-12-11T14:32:32.563Z,93.12
2022-12-11T14:34:59.961Z,93.28
2022-12-11T14:37:28.521Z,92.96
2022-12-11T14:40:01.891Z,93.39
2022-12-11T14:42:35.017Z,92.43
2022-12-11T14:45:12.787Z,92.54
2022-12-11T14:47:41.746Z,92.26
2022-12-11T14:50:15.647Z,92.61
2022-12-11T14:52:48.385Z,93.12
2022-12-11T14:55:30.885Z,92.75
2022-12-11T14:58:00.344Z,91.69
2022-12-11T15:00:28.489Z,91.01
2022-12-11T15:03:08.089Z,91.09
2022-12-11T15:05:40.505Z,90.19
2022-12-11T15:08:10.622Z,89.81
2022-12-11T15:10:42.842Z,89.68
2022-12-11T15:13:09.800Z,90.39
2022-12-11T15:15:47.472Z,90.63
2022-12-11T15:18:21.142Z,90.53
2022-12-11T15:20:54.229Z,91.48
2022-12-11T15:23:22.034Z,91.74
2022-12-11T15:25:53.026Z,92.04
2022-12-11T15:28:27.707Z,91.74
2022-12-11T15:30:59.826Z,91.42
2022-12-11T15:33:32.562Z,91.63
2022-12-11T15:36:06.197Z,91.32
2022-12-11T15:38:40.502Z,91.39
2022-12-11T15:41:13.506Z,91.60
2022-12-11T15:43:40.010Z,91.19
2022-12-11T15:46:07.664Z,90.64
2022-12-11T15:48:34.217Z,90.55
2022-12-11T15:51:00.840Z,90.60
2022-12-11T15:53:27.402Z,90.47
2022-12-11T15:55:54.126Z,89.27
2022-12-11T15:58:21.971Z,88.67
2022-12-11T16:00:48.523Z,88.70
2022-12-11T16:03:17.796Z,89.53
2022-12-11T16:05:47.417Z,90.06
2022-12-11T16:08:16.066Z,89.18
2022-12-11T16:10:44.774Z,87.91
2022-12-11T16:13:11.821Z,87.64
2022-12-11T16:15:39.937Z,87.40
2022-12-11T16:18:24.221Z,86.40
2022-12-11T16:20:51.545Z,86.35
2022-12-11T16:23:18.482Z,86.54
2022-12-11T16:25:45.480Z,86.42
2022-12-11T16:28:13.816Z,86.16
2022-12-11T16:30:40.332Z,86.67
2022-12-11T16:33:12.351Z,86.20
2022-12-11T16:35:39.852Z,86.83
2022-12-11T16:38:08.436Z,86.82
2022-12-11T16:40:37.416Z,86.95
2022-12-11T16:43:04.971Z,86.47
2022-12-11T16:45:32.302Z,84.87
2022-12-11T16:47:58.749Z,84.82
2022-12-11T16:50:25.929Z,85.00
2022-12-11T16:52:52.398Z,85.46
2022-12-11T16:55:22.274Z,85.52
2022-12-11T16:57:48.774Z,85.65
2022-12-11T17:00:21.872Z,85.52
2022-12-11T17:02:51.753Z,84.50
2022-12-11T17:05:18.410Z,84.52
2022-12-11T17:07:45.940Z,84.76
2022-12-11T17:10:12.461Z,83.56
2022-12-11T17:12:39.034Z,84.09
2022-12-11T17:15:05.928Z,83.47
2022-12-11T17:17:33.725Z,84.07
2022-12-11T17:20:00.197Z,83.50
2022-12-11T17:22:26.642Z,84.17
2022-12-11T17:24:53.100Z,83.02
2022-12-11T17:27:19.884Z,82.95
2022-12-11T17:29:49.358Z,82.43
2022-12-11T17:32:18.564Z,83.45
2022-12-11T17:34:45.966Z,81.32
2022-12-11T17:37:12.398Z,80.84
2022-12-11T17:39:39.641Z,82.17
2022-12-11T17:42:06.443Z,82.45
2022-12-11T17:44:34.774Z,83.16
2022-12-11T17:47:04.782Z,83.97
2022-12-11T17:49:37.727Z,83.01
2022-12-11T17:52:04.351Z,82.65
2022-12-11T17:54:31.192Z,82.28
2022-12-11T17:56:57.680Z,80.98
2022-12-11T17:59:24.418Z,81.00
2022-12-11T18:01:55.011Z,81.65
2022-12-11T18:04:21.473Z,82.43
2022-12-11T18:06:47.949Z,81.94
2022-12-11T18:09:14.386Z,82.29
2022-12-11T18:11:41.260Z,82.45
2022-12-11T18:14:10.061Z,80.40
2022-12-11T18:16:40.269Z,80.32
2022-12-11T18:19:08.452Z,80.74
2022-12-11T18:21:36.765Z,81.04
2022-12-11T18:24:03.222Z,82.41
2022-12-11T18:26:29.789Z,81.83
2022-12-11T18:28:56.402Z,82.21
2022-12-11T18:31:23.815Z,82.18
2022-12-11T18:33:50.918Z,82.30
2022-12-11T18:36:18.779Z,81.97
2022-12-11T18:38:46.264Z,80.64
2022-12-11T18:41:13.416Z,81.52
2022-12-11T18:43:40.969Z,81.90
2022-12-11T18:46:12.237Z,82.06
2022-12-11T18:48:38.718Z,82.00
2022-12-11T18:51:08.059Z,82.25
2022-12-11T18:53:35.270Z,82.03
2022-12-11T18:56:07.645Z,82.51
2022-12-11T18:58:34.560Z,81.36
2022-12-11T19:01:09.206Z,81.53
2022-12-11T19:03:35.828Z,81.90
2022-12-11T19:06:12.611Z,82.32
2022-12-11T19:08:39.735Z,82.83
2022-12-11T19:11:07.139Z,83.70
2022-12-11T19:13:34.564Z,83.57
2022-12-11T19:16:01.597Z,84.80
2022-12-11T19:18:28.080Z,82.55
2022-12-11T19:21:04.931Z,81.80
2022-12-11T19:23:33.076Z,82.41
2022-12-11T19:25:59.541Z,82.52
2022-12-11T19:28:26.007Z,82.08
2022-12-11T19:30:52.457Z,81.61
2022-12-11T19:33:18.953Z,82.47
2022-12-11T19:35:45.424Z,82.23
2022-12-11T19:38:12.833Z,83.37
2022-12-11T19:40:43.736Z,83.31
2022-12-11T19:43:10.580Z,83.54
2022-12-11T19:45:37.356Z,83.78
2022-12-11T19:48:04.041Z,84.29
2022-12-11T19:50:32.520Z,83.27
2022-12-11T19:52:59.035Z,82.26
2022-12-11T19:55:25.737Z,82.58
2022-12-11T19:57:52.158Z,82.91
2022-12-11T20:00:19.572Z,83.14
2022-12-11T20:02:46.017Z,83.72
2022-12-11T20:05:12.966Z,85.02
2022-12-11T20:07:40.073Z,85.11
2022-12-11T20:10:07.139Z,84.60
2022-12-11T20:12:33.651Z,84.75
2022-12-11T20:15:00.109Z,84.67
2022-12-11T20:17:26.733Z,84.76
2022-12-11T20:19:53.267Z,85.60
2022-12-11T20:22:19.688Z,85.61
2022-12-11T20:24:46.132Z,85.42
2022-12-11T20:27:12.671Z,85.80
2022-12-11T20:29:39.410Z,85.19
2022-12-11T20:32:05.999Z,85.43
2022-12-11T20:34:32.541Z,84.63
2022-12-11T20:37:00.247Z,85.19
2022-12-11T20:39:27.062Z,85.61
2022-12-11T20:41:53.491Z,84.41
2022-12-11T20:44:20.472Z,83.80
2022-12-11T20:46:46.941Z,83.64
2022-12-11T20:49:13.396Z,83.48
2022-12-11T20:51:40.684Z,84.73
2022-12-11T20:54:07.309Z,84.60
2022-12-11T20:56:33.752Z,85.44
2022-12-11T20:59:00.792Z,85.27
2022-12-11T21:01:30.089Z,85.37
2022-12-11T21:03:56.615Z,85.24
2022-12-11T21:06:35.150Z,85.74
2022-12-11T21:09:05.974Z,84.96
2022-12-11T21:11:32.625Z,84.54
2022-12-11T21:13:59.320Z,83.56
2022-12-11T21:16:25.924Z,83.27
2022-12-11T21:18:52.543Z,81.99
2022-12-11T21:21:19.068Z,81.58
2022-12-11T21:23:48.596Z,83.36
2022-12-11T21:26:15.416Z,83.28
2022-12-11T21:28:41.914Z,84.15
2022-12-11T21:31:12.243Z,84.54
2022-12-11T21:33:38.914Z,84.32
2022-12-11T21:36:07.082Z,85.00
2022-12-11T21:38:33.796Z,84.81
2022-12-11T21:41:27.667Z,85.18
2022-12-11T21:46:42.311Z,86.15
2022-12-11T21:49:08.827Z,85.75
2022-12-11T21:51:41.352Z,86.10
2022-12-11T21:54:13.289Z,86.81
2022-12-11T21:56:39.977Z,86.72
2022-12-11T21:59:06.798Z,86.62
2022-12-11T22:01:38.785Z,85.96
2022-12-11T22:04:05.692Z,85.16
2022-12-11T22:06:32.645Z,84.02
2022-12-11T22:08:59.126Z,84.59
2022-12-11T22:11:29.305Z,85.10
2022-12-11T22:13:56.247Z,85.29
2022-12-11T22:16:23.081Z,85.94
2022-12-11T22:18:49.664Z,85.86
2022-12-11T22:21:17.328Z,85.44
2022-12-11T22:23:44.650Z,86.15
2022-12-11T22:26:16.046Z,85.31
2022-12-11T22:28:42.809Z,85.86
2022-12-11T22:31:13.709Z,86.78
2022-12-11T22:33:40.259Z,86.25
2022-12-11T22:36:06.827Z,85.67
2022-12-11T22:38:34.379Z,84.60
2022-12-11T22:41:03.027Z,84.12
2022-12-11T22:43:29.437Z,83.12
2022-12-11T22:45:56.133Z,82.80
2022-12-11T22:48:27.206Z,83.48
2022-12-11T22:50:54.758Z,83.69
2022-12-11T22:53:21.226Z,83.65
2022-12-11T22:55:47.719Z,83.61
2022-12-11T22:58:18.562Z,83.54
2022-12-11T23:00:47.911Z,82.70
2022-12-11T23:03:14.445Z,83.14
2022-12-11T23:05:41.022Z,83.26
2022-12-11T23:08:07.544Z,82.89
2022-12-11T23:10:34.070Z,82.80
2022-12-11T23:13:00.728Z,82.91
2022-12-11T23:15:27.243Z,82.16
2022-12-11T23:17:53.734Z,82.73
2022-12-11T23:20:20.284Z,82.03
2022-12-11T23:22:46.728Z,82.28
2022-12-11T23:25:14.404Z,82.21
2022-12-11T23:27:41.022Z,81.35
2022-12-11T23:30:08.369Z,80.52
2022-12-11T23:32:34.801Z,80.63
2022-12-11T23:35:01.268Z,79.98
2022-12-11T23:37:29.129Z,78.67
2022-12-11T23:39:55.564Z,77.65
2022-12-11T23:42:22.030Z,77.64
2022-12-11T23:44:48.458Z,77.39
2022-12-11T23:47:14.902Z,78.89
2022-12-11T23:49:41.325Z,78.67
2022-12-11T23:52:08.579Z,79.04
2022-12-11T23:54:35.003Z,79.46
2022-12-11T23:57:01.442Z,79.48
2022-12-11T23:59:27.870Z,79.56
